Weather observations for the past three days for
Hillsville
Imperial (Metric)
Date Time (edt) Wind (mph) Vis. (mi.) Weather Sky Cond. Temperature (ºF) Relative Humidity Wind Chill (°F) Heat Index (°F) Pressure Precipitation (in)
Air Dwpt 6 hour altimeter (in) sea level (mb) 1 hr 3 hr 6 hr
Max. Min.
05 23:15 S 12 G 17 10.00 Fair CLR 62.6 44.6 52% 29.95 0.0
05 22:55 S 12 G 18 10.00 Partly Cloudy SCT120 62.6 42.8 49% 29.95 0.0
05 22:35 S 8 10.00 Partly Cloudy SCT120 62.6 42.8 49% 29.96 0.0
05 22:15 S 10 10.00 Fair CLR 62.6 42.8 49% 29.96 0.0
05 21:55 S 9 10.00 Partly Cloudy SCT090 62.6 42.8 49% 29.96 0.0
05 21:35 S 8 10.00 Mostly Cloudy BKN100 62.6 42.8 49% 29.96 0.0
05 21:15 S 7 10.00 Overcast BKN100 OVC120 62.6 42.8 49% 29.96 0.0
05 20:55 S 7 10.00 Partly Cloudy SCT120 62.6 42.8 49% 29.96 0.0
05 20:35 S 7 10.00 Fair CLR 62.6 42.8 49% 29.96 0.0
05 20:15 S 8 10.00 Fair CLR 64.4 42.8 46% 29.96 0.0
05 19:55 S 8 10.00 Fair CLR 64.4 42.8 46% 29.96 0.0
05 19:35 S 10 G 20 10.00 Fair CLR 66.2 41 40% 29.96 0.0
05 19:15 S 15 G 22 10.00 Fair CLR 66.2 42.8 43% 29.95 0.0
05 18:55 S 10 G 26 10.00 Fair CLR 68 42.8 40% 29.94 0.0
05 18:35 S 13 G 22 10.00 Fair CLR 69.8 42.8 38% 29.94 0.0
05 18:15 S 14 G 22 10.00 Fair CLR 68 41 38% 29.95 0.0
05 17:55 S 12 G 24 10.00 Fair CLR 69.8 42.8 38% 29.94 0.0
05 17:35 S 14 G 21 10.00 Fair CLR 69.8 41 35% 29.95 0.0
05 17:15 SW 16 G 24 10.00 Fair CLR 69.8 41 35% 29.95 0.0
05 16:55 S 14 G 25 10.00 Fair CLR 69.8 39.2 33% 29.95 0.0
05 16:35 S 16 G 29 10.00 Fair CLR 69.8 39.2 33% 29.95 0.0
05 16:15 S 10 G 23 10.00 Fair CLR 69.8 42.8 38% 29.95 0.0
05 15:55 S 14 G 23 10.00 Fair CLR 69.8 42.8 38% 29.96 0.0
05 15:35 S 15 G 23 10.00 Fair CLR 71.6 42.8 36% 29.96 0.0
05 15:15 S 13 G 20 10.00 Fair CLR 71.6 41 33% 29.97 0.0
05 14:55 S 10 G 20 10.00 Fair CLR 69.8 37.4 31% 29.98 0.0
05 14:35 S 12 G 23 10.00 Fair CLR 69.8 37.4 31% 29.98 0.0
05 14:15 S 14 G 25 10.00 Fair CLR 69.8 39.2 33% 29.99 0.0
05 13:55 S 10 G 18 10.00 Fair CLR 69.8 44.6 40% 29.99 0.0
05 13:35 SE 14 10.00 Fair CLR 69.8 44.6 40% 29.99 0.0
05 13:15 S 13 10.00 Fair CLR 69.8 44.6 40% 30 0.0
05 12:55 S 10 10.00 Fair CLR 69.8 44.6 40% 30 0.0
05 12:35 SW 10 10.00 Fair CLR 69.8 42.8 38% 30.01 0.0
05 12:15 SW 7 G 10 10.00 Fair CLR 69.8 41 35% 30.02 0.0
05 11:55 SW 12 10.00 Fair CLR 68 41 38% 30.02 0.0
05 11:35 W 6 10.00 Fair CLR 68 41 38% 30.03 0.0
05 11:15 SW 7 10.00 Fair CLR 66.2 41 40% 30.04 0.0
05 10:55 SW 8 10.00 Fair CLR 66.2 42.8 43% 30.04 0.0
05 10:35 SW 9 10.00 Fair CLR 64.4 42.8 46% 30.03 0.0
05 10:15 SW 8 10.00 Fair CLR 64.4 41 43% 30.03 0.0
05 09:55 SW 3 10.00 Fair CLR 62.6 41 45% 30.03 0.0
05 09:35 SW 5 10.00 Fair CLR 62.6 44.6 52% 30.03 0.0
05 09:15 SW 6 10.00 Fair CLR 60.8 42.8 52% 30.03 0.0
05 08:55 S 5 10.00 Fair CLR 59 42.8 55% 30.02 0.0
05 08:35 S 5 10.00 Fair CLR 57.2 42.8 59% 30.02 0.0
05 08:15 S 3 10.00 Fair CLR 55.4 42.8 63% 30.01 0.0
05 07:55 S 3 10.00 Fair CLR 55.4 42.8 63% 30.01 0.0
05 07:35 Calm 10.00 Fair CLR 53.6 41 63% 30.01 0.0
05 07:15 S 3 10.00 Fair CLR 51.8 41 67% 30.01 0.0
05 06:55 Calm 10.00 Fair CLR 51.8 41 67% 30 0.0
05 06:35 S 3 10.00 Fair CLR 53.6 41 63% 29.99 0.0
05 06:15 S 5 10.00 Fair CLR 55.4 41 59% 29.99 0.0
05 05:55 S 6 10.00 Fair CLR 55.4 41 59% 29.98 0.0
05 05:35 S 5 10.00 Fair CLR 53.6 41 63% 29.98 0.0
05 05:15 S 6 10.00 Fair CLR 53.6 41 63% 29.98 0.0
05 04:55 S 6 10.00 Fair CLR 53.6 41 63% 29.98 0.0
05 04:35 SW 5 10.00 Fair CLR 55.4 41 59% 29.98 0.0
05 04:15 S 7 10.00 Fair CLR 53.6 41 63% 29.98 0.0
05 03:55 S 6 10.00 Fair CLR 55.4 39.2 55% 29.98 0.0
05 03:35 S 7 10.00 Fair CLR 55.4 39.2 55% 29.97 0.0
05 03:15 S 6 10.00 Fair CLR 57.2 39.2 51% 29.96 0.0
05 02:55 S 8 10.00 Fair CLR 57.2 39.2 51% 29.96 0.0
05 02:35 S 8 10.00 Fair CLR 57.2 39.2 51% 29.96 0.0
05 02:15 S 9 10.00 Fair CLR 59 39.2 48% 29.96 0.0
05 01:55 S 12 10.00 Fair CLR 59 39.2 48% 29.97 0.0
05 01:35 SW 13 G 17 10.00 Fair CLR 59 39.2 48% 29.96 0.0
05 01:15 S 10 10.00 Fair CLR 59 39.2 48% 29.97 0.0
05 00:55 S 9 G 16 10.00 Fair CLR 59 37.4 45% 29.96 0.0
05 00:35 S 9 10.00 Fair CLR 60.8 37.4 42% 29.96 0.0
05 00:15 S 10 10.00 Fair CLR 60.8 37.4 42% 29.96 0.0
04 23:55 S 9 G 16 10.00 Fair CLR 60.8 37.4 42% 29.97 0.0
04 23:35 S 8 G 16 10.00 Fair CLR 60.8 37.4 42% 29.97 0.0
04 23:15 S 8 10.00 Fair CLR 60.8 37.4 42% 29.98 0.0
04 22:55 S 6 10.00 Fair CLR 60.8 39.2 45% 29.98 0.0
04 22:35 S 7 10.00 Fair CLR 60.8 41 48% 29.98 0.0
04 22:15 S 5 10.00 Fair CLR 60.8 41 48% 29.98 0.0
04 21:55 S 8 10.00 Fair CLR 62.6 41 45% 29.98 0.0
04 21:35 S 7 10.00 Fair CLR 62.6 41 45% 29.98 0.0
04 21:15 S 7 10.00 Fair CLR 62.6 42.8 49% 29.97 0.0
04 20:55 S 7 10.00 Fair CLR 62.6 42.8 49% 29.97 0.0
04 20:35 S 8 10.00 Fair CLR 62.6 42.8 49% 29.96 0.0
04 20:15 S 7 10.00 Fair CLR 64.4 42.8 46% 29.96 0.0
04 19:55 S 8 G 16 10.00 Fair CLR 66.2 42.8 43% 29.96 0.0
04 19:35 S 6 10.00 Fair CLR 66.2 42.8 43% 29.95 0.0
04 19:15 S 7 10.00 Fair CLR 68 42.8 40% 29.95 0.0
04 18:55 S 8 10.00 Partly Cloudy SCT080 SCT090 68 42.8 40% 29.95 0.0
04 18:35 SW 13 G 17 10.00 Partly Cloudy SCT070 SCT090 69.8 42.8 38% 29.95 0.0
04 18:15 S 8 G 16 10.00 Partly Cloudy SCT070 69.8 44.6 40% 29.94 0.0
04 17:35 SW 13 10.00 Partly Cloudy SCT070 SCT075 71.6 44.6 38% 29.95 0.0
04 17:15 W 12 G 17 10.00 Mostly Cloudy BKN060 BKN080 69.8 44.6 40% 29.95 0.0
04 16:55 SW 12 G 16 10.00 Mostly Cloudy BKN060 69.8 42.8 38% 29.95 0.0
04 16:35 SW 10 G 21 10.00 Partly Cloudy SCT060 SCT075 SCT090 69.8 44.6 40% 29.95 0.0
04 16:15 SW 9 10.00 Partly Cloudy SCT070 SCT090 69.8 44.6 40% 29.96 0.0
04 15:55 SW 9 G 17 10.00 Partly Cloudy SCT060 SCT070 SCT090 69.8 46.4 43% 29.96 0.0
04 15:35 SW 8 10.00 Mostly Cloudy BKN070 69.8 46.4 43% 29.97 0.0
04 15:15 SW 14 10.00 Mostly Cloudy SCT050 BKN070 68 46.4 46% 29.98 0.0
04 14:55 SW 8 10.00 Mostly Cloudy SCT050 BKN070 BKN080 66.2 46.4 49% 29.98 0.0
04 14:35 W 10 10.00 Overcast SCT050 SCT060 OVC080 66.2 44.6 46% 29.99 0.0
04 14:15 NW 15 10.00 Overcast SCT060 OVC080 64.4 44.6 49% 29.99 0.0
04 13:55 W 10 G 21 10.00 Overcast SCT055 BKN070 OVC080 64.4 42.8 46% 30 0.0
04 13:35 W 13 G 23 10.00 Partly Cloudy SCT055 SCT070 64.4 42.8 46% 30 0.0
04 13:15 W 13 G 17 10.00 Fair CLR 64.4 44.6 49% 30 0.0
04 12:55 NW 9 G 16 10.00 Fair CLR 64.4 42.8 46% 30 0.0
04 12:35 W 10 G 16 10.00 Partly Cloudy SCT048 64.4 44.6 49% 30.01 0.0
04 12:15 W 10 G 16 10.00 Fair CLR 62.6 42.8 49% 30.03 0.0
04 11:55 SW 9 10.00 Fair CLR 60.8 42.8 52% 30.03 0.0
04 11:35 W 9 10.00 Fair CLR 60.8 42.8 52% 30.03 0.0
04 11:15 W 9 G 16 10.00 Partly Cloudy SCT080 SCT120 59 41 51% 30.03 0.0
04 10:55 W 9 G 22 10.00 Mostly Cloudy SCT043 SCT065 BKN080 57.2 39.2 51% 30.03 0.0
04 10:35 W 17 G 22 10.00 Fair CLR 59 37.4 45% 30.04 0.0
04 10:15 W 7 10.00 Mostly Cloudy BKN065 55.4 35.6 47% 30.05 0.0
04 09:55 W 7 10.00 Overcast OVC065 53.6 35.6 51% 30.05 0.0
04 09:35 SW 7 10.00 Overcast OVC065 51.8 37.4 58% 30.05 0.0
04 09:15 SW 9 10.00 Overcast BKN070 OVC075 51.8 35.6 54% 30.05 0.0
04 08:55 SW 7 10.00 Overcast OVC070 51.8 37.4 58% 30.03 0.0
04 08:35 SW 9 10.00 Overcast SCT075 OVC080 51.8 35.6 54% 30.03 0.0
04 08:15 SW 7 10.00 Overcast OVC090 50 35.6 58% 48 30.02 0.0
04 07:55 SW 7 10.00 Partly Cloudy SCT090 48.2 35.6 62% 46 30.02 0.0
04 07:35 SW 7 10.00 Partly Cloudy SCT080 SCT090 46.4 32 57% 43 30.02 0.0
04 07:15 SW 6 10.00 Overcast SCT080 OVC100 46.4 32 57% 44 30.02 0.0
04 06:55 SW 5 10.00 Overcast OVC100 46.4 32 57% 45 30.02 0.0
04 06:35 SW 6 10.00 Overcast OVC100 44.6 32 61% 42 30.02 0.0
04 06:15 SW 6 10.00 Overcast OVC100 44.6 32 61% 42 30.02 0.0
04 05:55 SW 3 10.00 Overcast OVC100 44.6 32 61% 30.02 0.0
04 05:35 SW 5 10.00 Overcast OVC100 44.6 32 61% 43 30.02 0.0
04 05:15 SW 3 10.00 Overcast OVC110 44.6 32 61% 30.03 0.0
04 04:55 SW 6 10.00 Mostly Cloudy BKN120 44.6 32 61% 42 30.03 0.0
04 04:35 SW 3 10.00 Mostly Cloudy BKN110 44.6 30.2 57% 30.02 0.0
04 04:15 S 5 10.00 Overcast OVC110 46.4 30.2 53% 45 30.02 0.0
04 03:55 SW 3 10.00 Overcast OVC110 46.4 30.2 53% 30.02 0.0
04 03:35 S 5 10.00 Overcast OVC110 46.4 30.2 53% 45 30.03 0.0
04 03:15 S 3 10.00 Overcast OVC110 44.6 30.2 57% 30.03 0.0
04 02:55 S 3 10.00 Overcast OVC110 44.6 30.2 57% 30.03 0.0
04 02:35 S 6 10.00 Overcast OVC110 46.4 30.2 53% 44 30.03 0.0
04 02:15 SW 3 10.00 Overcast OVC110 44.6 28.4 53% 30.04 0.0
04 01:55 Calm 10.00 Overcast OVC110 44.6 28.4 53% 30.03 0.0
04 01:35 Calm 10.00 Mostly Cloudy BKN100 BKN120 46.4 28.4 50% 30.03 0.0
04 01:15 SW 6 10.00 Partly Cloudy SCT100 SCT120 46.4 28.4 50% 44 30.04 0.0
04 00:55 SW 6 10.00 Partly Cloudy SCT100 44.6 28.4 53% 42 30.03 0.0
04 00:35 S 6 10.00 Partly Cloudy SCT120 46.4 28.4 50% 44 30.03 0.0
04 00:15 S 6 10.00 Partly Cloudy SCT120 46.4 28.4 50% 44 30.03 0.0
03 23:55 S 3 10.00 Partly Cloudy SCT120 46.4 28.4 50% 30.03 0.0
03 23:35 S 3 10.00 Partly Cloudy SCT120 46.4 28.4 50% 30.04 0.0
03 23:15 SE 5 10.00 Fair CLR 46.4 28.4 50% 45 30.03 0.0
03 22:55 SW 3 10.00 Fair CLR 50 26.6 40% 30.03 0.0
03 22:35 SW 6 10.00 Fair CLR 50 26.6 40% 48 30.03 0.0
03 22:15 W 6 10.00 Fair CLR 50 26.6 40% 48 30.04 0.0
03 21:55 S 5 10.00 Fair CLR 50 26.6 40% 49 30.02 0.0
03 21:35 W 5 10.00 Fair CLR 51.8 24.8 35% 30.03 0.0
03 21:15 W 3 10.00 Fair CLR 51.8 24.8 35% 30.02 0.0
03 20:55 W 3 10.00 Fair CLR 51.8 26.6 38% 30.01 0.0
03 20:35 W 3 10.00 Fair CLR 51.8 26.6 38% 30.01 0.0
03 20:15 W 3 10.00 Fair CLR 53.6 26.6 35% 30 0.0
03 19:55 NW 7 10.00 Fair CLR 55.4 24.8 31% 30 0.0
03 19:35 NW 9 10.00 Fair CLR 55.4 24.8 31% 30 0.0
03 19:15 W 8 10.00 Fair CLR 57.2 23 27% 29.99 0.0
03 18:55 W 9 10.00 Fair CLR 59 24.8 27% 29.99 0.0
03 18:35 NW 9 10.00 Fair CLR 59 23 25% 29.99 0.0
03 18:15 W 9 G 17 10.00 Fair CLR 59 21.2 23% 30 0.0
03 17:55 W 5 10.00 Fair CLR 59 23 25% 30 0.0
03 17:35 W 12 G 18 10.00 Fair CLR 59 23 25% 30 0.0
03 17:15 W 9 10.00 Fair CLR 59 24.8 27% 30.01 0.0
03 16:55 W 10 G 18 10.00 Fair CLR 59 23 25% 30.01 0.0
03 16:35 NW 9 10.00 Fair CLR 59 23 25% 30.01 0.0
03 16:15 NW 14 G 17 10.00 Fair CLR 59 21.2 23% 30.02 0.0
03 15:55 W 15 G 18 10.00 Fair CLR 55.4 21.2 26% 30.03 0.0
03 15:35 NW 9 G 18 10.00 Fair CLR 55.4 21.2 26% 30.04 0.0
03 14:55 NW 10 G 20 10.00 Fair CLR 53.6 19.4 26% 30.05 0.0
03 14:35 NW 10 G 16 10.00 Fair CLR 55.4 21.2 26% 30.05 0.0
03 14:15 NW 10 G 17 10.00 Fair CLR 53.6 21.2 28% 30.07 0.0
03 13:55 N 13 G 17 10.00 Fair CLR 53.6 23 30% 30.07 0.0
03 13:35 N 3 10.00 Fair CLR 51.8 23 32% 30.07 0.0
03 13:15 NW 12 G 18 10.00 Fair CLR 51.8 21.2 30% 30.08 0.0
03 12:55 NW 14 G 17 10.00 Fair CLR 50 19.4 30% 45 30.08 0.0
03 12:35 Calm 10.00 Fair CLR 50 21.2 32% 30.09 0.0
03 12:15 NW 8 G 18 10.00 Fair CLR 48.2 19.4 32% 45 30.1 0.0
03 11:55 NW 13 G 16 10.00 Fair CLR 48.2 19.4 32% 43 30.1 0.0
03 11:35 N 9 G 16 10.00 Fair CLR 46.4 21.2 37% 42 30.1 0.0
03 11:15 NW 8 10.00 Fair CLR 46.4 21.2 37% 43 30.1 0.0
03 10:55 NW 13 G 17 10.00 Fair CLR 44.6 19.4 37% 39 30.1 0.0
03 10:35 N 15 G 24 10.00 Fair CLR 44.6 21.2 39% 38 30.1 0.0
03 10:15 NW 16 G 20 10.00 Fair CLR 42.8 21.2 42% 36 30.1 0.0
03 09:55 NW 14 G 23 10.00 Fair CLR 42.8 21.2 42% 36 30.1 0.0
03 09:35 NW 17 G 24 10.00 Fair CLR 42.8 23 46% 35 30.09 0.0
03 09:15 NW 13 G 17 10.00 Fair CLR 41 23 49% 34 30.09 0.0
03 08:55 NW 14 G 20 10.00 Fair CLR 41 23 49% 34 30.09 0.0
03 08:35 NW 13 G 21 10.00 Fair CLR 39.2 24.8 56% 32 30.09 0.0
03 08:15 NW 10 10.00 Fair CLR 39.2 28.4 65% 33 30.08 0.0
03 07:55 NW 10 10.00 Fair CLR 37.4 28.4 70% 31 30.07 0.0
03 07:35 NW 9 10.00 Fair CLR 37.4 28.4 70% 31 30.07 0.0
03 07:15 NW 8 10.00 Fair CLR 35.6 28.4 75% 30 30.06 0.0
03 06:55 W 8 10.00 Fair CLR 35.6 30.2 81% 30 30.05 0.0
03 06:35 NW 10 10.00 Fair CLR 35.6 30.2 81% 29 30.03 0.0
03 06:15 NW 9 10.00 Fair CLR 35.6 30.2 81% 29 30.03 0.0
03 05:55 NW 7 10.00 Fair CLR 35.6 30.2 81% 31 30.03 0.0
03 05:35 W 3 10.00 Fair CLR 35.6 30.2 81% 30.02 0.0
03 05:15 SW 5 10.00 Fair CLR 35.6 30.2 81% 32 30.02 0.0
03 04:55 W 3 10.00 Fair CLR 35.6 30.2 81% 30.01 0.0
03 04:35 SW 5 10.00 Fair CLR 35.6 30.2 81% 32 30.01 0.0
03 04:15 SW 5 10.00 Fair CLR 35.6 30.2 81% 32 30 0.0
03 03:55 Calm 10.00 Fair CLR 37.4 30.2 75% 30 0.0
03 03:35 Calm 10.00 Fair CLR 39.2 30.2 70% 30 0.0
03 03:15 NW 7 10.00 Fair CLR 39.2 30.2 70% 35 29.98 0.0
03 02:55 NW 7 10.00 Fair CLR 39.2 30.2 70% 35 29.98 0.0
03 02:35 NW 8 10.00 Fair CLR 41 30.2 66% 36 29.98 0.0
03 02:15 NW 8 10.00 Fair CLR 41 30.2 66% 36 29.98 0.0
03 01:55 NW 8 10.00 Fair CLR 41 30.2 66% 36 29.98 0.0
03 01:35 NW 10 10.00 Fair CLR 41 28.4 61% 35 29.98 0.0
03 01:15 NW 9 10.00 Fair CLR 41 30.2 66% 36 29.98 0.0
03 00:55 NW 9 10.00 Fair CLR 41 28.4 61% 36 29.98 0.0
03 00:35 NW 9 10.00 Fair CLR 41 28.4 61% 36 29.98 0.0
03 00:15 NW 9 10.00 Fair CLR 42.8 28.4 57% 38 29.98 0.0
02 23:55 NW 8 10.00 Fair CLR 42.8 30.2 61% 39 29.97 0.0
Date Time (edt) Wind (mph) Vis. (mi.) Weather Sky Cond. Air Dwpt Max. Min. Relative Humidity Wind Chill (°F) Heat Index (°F) altimeter (in) sea level (mb) 1 hr 3 hr 6 hr
6 hour
Temperature (ºF) Pressure Precipitation (in)